Airfield :
LOGIN :

Register | Disclaimer

   EN    FR    IT 

 










Legend :    VFR   Marginal VFR   IFR   Intensive IFR   Very Intensive IFR
Visi :
Ceiling :
>= 8 km
>= 3000ft
5 to 8 km
1000 to 3000 ft
1500m to 5 km
500 to 1000 ft
800 to 1500m
200 to 500 ft
< 800m
< 200 ft
Symbols :   Thunderstorms  Fog  Heavy snow  Heavy precipitations  Wind > 20 kt
SIGMETs :     Misc.  Thunderstorms  Icing  Turbulence  Mountain Waves  Volcanic Ashes







- Airport Elevation : 404 ft
- IATA code : WRO


EPWR - Wroclaw

CURRENT METAR :
  • 241730Z 32007KT 9999 -RA FEW034 BKN044 BKN049 11/09 Q1018

EXPIRED METARs :
  • 241700Z 34009KT 9999 -RA FEW032 BKN040 11/08 Q1018
  • 241630Z 32009KT 9999 FEW034 BKN043 12/08 Q1018
  • 241600Z 32008KT 9999 FEW031 BKN040 13/07 Q1018
  • 241530Z 31013KT 9999 SCT035 13/07 Q1017
  • 241500Z 30012KT 9999 SCT037 BKN048 13/07 Q1017

TAF TAF EPWR
Valid from the 24 at 18:00 until the 25 at 18:00 UTC


241730Z 2418/2518 33008KT 9999 BKN030
TEMPO 2421/2505 -RA BKN012
No reported NOTAMs for that airfield.
1 SIGMET reported for the Warszawa FIR (EPWW) :
 
SIGMET 2  cancelation
EPWW SIGMET 3 VALID 241605/241715 EPWA
EPWW WARSAW FIR CNL SIGMET 2 241315/241715=



MET'MAP, your aeronautical weather chart ! - Copyright ORBIFLY December 2007 - Disclaimer

ORBIFLY MET'MAP TEAM :

Programming & Development : Alexandra Zaïnal
Concept & Development : Baudouin d'Aumeries
Co-Development & Prog : Marc-Olivier Méhu
Technical & hardware support : Manuel Goepfert

Contact : metmap@orbifly.com




SOURCES & CREDITS :

   NOAA